createdAt,value
2023-04-11T00:01:41.552Z,9.90
2023-04-11T00:04:11.028Z,9.90
2023-04-11T00:06:39.320Z,9.90
2023-04-11T00:09:07.289Z,9.90
2023-04-11T00:11:35.283Z,10.00
2023-04-11T00:14:05.423Z,10.10
2023-04-11T00:16:34.358Z,10.10
2023-04-11T00:19:03.838Z,10.10
2023-04-11T00:21:31.778Z,10.10
2023-04-11T00:23:59.979Z,10.10
2023-04-11T00:26:28.200Z,10.10
2023-04-11T00:28:56.364Z,10.30
2023-04-11T00:31:24.588Z,10.30
2023-04-11T00:33:52.581Z,10.30
2023-04-11T00:36:22.067Z,10.30
2023-04-11T00:38:50.119Z,10.30
2023-04-11T00:41:18.989Z,10.20
2023-04-11T00:43:47.137Z,10.20
2023-04-11T00:46:17.057Z,10.20
2023-04-11T00:48:46.067Z,10.20
2023-04-11T00:51:14.349Z,10.20
2023-04-11T00:53:45.600Z,10.20
2023-04-11T00:56:13.888Z,10.20
2023-04-11T00:58:42.489Z,10.20
2023-04-11T01:01:10.565Z,10.20
2023-04-11T01:03:41.291Z,10.10
2023-04-11T01:06:11.613Z,10.10
2023-04-11T01:08:43.841Z,10.10
2023-04-11T01:11:15.780Z,10.10
2023-04-11T01:13:43.859Z,10.10
2023-04-11T01:16:12.240Z,10.10
2023-04-11T01:18:40.339Z,10.10
2023-04-11T01:21:10.164Z,10.10
2023-04-11T01:23:39.560Z,10.00
2023-04-11T01:26:07.917Z,10.00
2023-04-11T01:28:35.874Z,10.00
2023-04-11T01:31:05.114Z,9.90
2023-04-11T01:33:33.178Z,9.90
2023-04-11T01:36:01.403Z,9.90
2023-04-11T01:38:29.498Z,9.90
2023-04-11T01:41:00.050Z,9.90
2023-04-11T01:43:28.166Z,9.80
2023-04-11T01:45:56.181Z,9.70
2023-04-11T01:48:24.239Z,9.60
2023-04-11T01:50:53.044Z,9.50
2023-04-11T01:53:21.046Z,9.50
2023-04-11T01:55:49.013Z,9.40
2023-04-11T01:58:18.352Z,9.40
2023-04-11T02:00:46.375Z,9.30
2023-04-11T02:03:14.581Z,9.30
2023-04-11T02:05:43.996Z,9.30
2023-04-11T02:08:12.224Z,9.40
2023-04-11T02:10:40.183Z,9.30
2023-04-11T02:13:08.161Z,9.30
2023-04-11T02:15:37.549Z,9.30
2023-04-11T02:18:06.828Z,9.30
2023-04-11T02:20:34.816Z,9.40
2023-04-11T02:23:04.335Z,9.40
2023-04-11T02:25:32.366Z,9.40
2023-04-11T02:28:00.795Z,9.50
2023-04-11T02:30:28.896Z,9.50
2023-04-11T02:32:58.248Z,9.50
2023-04-11T02:35:26.389Z,9.40
2023-04-11T02:37:54.325Z,9.40
2023-04-11T02:40:22.257Z,9.40
2023-04-11T02:42:50.225Z,9.40
2023-04-11T02:45:19.027Z,9.40
2023-04-11T02:47:47.066Z,9.40
2023-04-11T02:50:16.909Z,9.40
2023-04-11T02:52:50.365Z,9.40
2023-04-11T02:55:24.070Z,9.40
2023-04-11T02:57:52.807Z,9.30
2023-04-11T03:00:22.238Z,9.30
2023-04-11T03:02:57.326Z,9.30
2023-04-11T03:05:27.796Z,9.30
2023-04-11T03:07:57.749Z,9.30
2023-04-11T03:10:26.794Z,9.30
2023-04-11T03:12:55.319Z,9.20
2023-04-11T03:15:23.520Z,9.10
2023-04-11T03:17:51.497Z,9.10
2023-04-11T03:20:20.314Z,9.10
2023-04-11T03:22:55.440Z,9.00
2023-04-11T03:25:25.188Z,9.00
2023-04-11T03:27:53.959Z,9.10
2023-04-11T03:30:22.745Z,9.00
2023-04-11T03:32:50.689Z,9.10
2023-04-11T03:35:20.491Z,9.10
2023-04-11T03:37:50.810Z,9.10
2023-04-11T03:40:20.393Z,9.20
2023-04-11T03:42:54.517Z,9.20
2023-04-11T03:45:27.000Z,9.30
2023-04-11T03:47:56.267Z,9.20
2023-04-11T03:50:29.208Z,9.20
2023-04-11T03:53:01.534Z,9.20
2023-04-11T03:55:32.387Z,9.20
2023-04-11T03:58:02.900Z,9.20
2023-04-11T04:00:32.290Z,9.20
2023-04-11T04:03:07.000Z,9.20
2023-04-11T04:05:35.481Z,9.20
2023-04-11T04:08:03.772Z,9.30
2023-04-11T04:10:44.218Z,9.30
2023-04-11T04:13:12.449Z,9.30
2023-04-11T04:15:44.476Z,9.30
2023-04-11T04:18:14.373Z,9.20
2023-04-11T04:20:47.612Z,9.20
2023-04-11T04:23:17.947Z,9.10
2023-04-11T04:26:02.226Z,9.10
2023-04-11T04:28:32.704Z,9.00
2023-04-11T04:31:04.005Z,9.10
2023-04-11T04:33:42.873Z,9.10
2023-04-11T04:36:19.008Z,9.20
2023-04-11T04:38:48.808Z,9.10
2023-04-11T04:41:22.060Z,9.10
2023-04-11T04:43:58.097Z,9.10
2023-04-11T04:46:44.415Z,9.10
2023-04-11T04:49:12.467Z,9.10
2023-04-11T04:51:41.251Z,9.10
2023-04-11T04:54:09.754Z,9.10
2023-04-11T04:56:39.317Z,9.10
2023-04-11T04:59:14.437Z,9.00
2023-04-11T05:01:44.317Z,9.10
2023-04-11T05:04:12.761Z,9.10
2023-04-11T05:06:51.864Z,9.10
2023-04-11T05:09:20.168Z,9.10
2023-04-11T05:11:51.478Z,9.10
2023-04-11T05:14:21.408Z,9.10
2023-04-11T05:16:49.413Z,9.10
2023-04-11T05:19:17.427Z,9.10
2023-04-11T05:21:48.629Z,9.10
2023-04-11T05:24:16.682Z,9.10
2023-04-11T05:26:45.736Z,9.10
2023-04-11T05:29:18.350Z,9.20
2023-04-11T05:31:46.699Z,9.10
2023-04-11T05:34:14.699Z,9.20
2023-04-11T05:36:43.092Z,9.10
2023-04-11T05:39:11.036Z,9.10
2023-04-11T05:41:39.079Z,9.10
2023-04-11T05:44:07.023Z,9.00
2023-04-11T05:46:37.444Z,9.00
2023-04-11T05:49:05.615Z,9.10
2023-04-11T05:51:33.839Z,9.00
2023-04-11T05:54:01.849Z,9.20
2023-04-11T05:56:29.852Z,9.20
2023-04-11T05:58:57.779Z,9.20
2023-04-11T06:01:26.136Z,9.20
2023-04-11T06:03:55.933Z,9.30
2023-04-11T06:06:24.659Z,9.30
2023-04-11T06:08:52.626Z,9.30
2023-04-11T06:11:20.745Z,9.30
2023-04-11T06:13:48.745Z,9.30
2023-04-11T06:16:16.822Z,9.30
2023-04-11T06:18:44.805Z,9.30
2023-04-11T06:21:14.290Z,9.40
2023-04-11T06:23:42.263Z,9.40
2023-04-11T06:26:11.378Z,9.40
2023-04-11T06:28:39.653Z,9.50
2023-04-11T06:31:09.834Z,9.40
2023-04-11T06:33:38.568Z,9.60
2023-04-11T06:36:07.276Z,9.80
2023-04-11T06:38:38.072Z,9.60
2023-04-11T06:41:08.255Z,9.60
2023-04-11T06:43:36.369Z,9.70
2023-04-11T06:46:04.722Z,9.80
2023-04-11T06:48:32.786Z,9.70
2023-04-11T06:51:00.777Z,9.80
2023-04-11T06:53:29.195Z,9.60
2023-04-11T06:56:00.942Z,10.10
2023-04-11T06:58:28.978Z,10.30
2023-04-11T07:00:56.893Z,10.30
2023-04-11T07:03:26.515Z,10.50
2023-04-11T07:05:54.684Z,11.20
2023-04-11T07:08:22.676Z,10.70
2023-04-11T07:10:50.708Z,11.20
2023-04-11T07:13:21.190Z,12.40
2023-04-11T07:15:49.197Z,12.40
2023-04-11T07:18:17.237Z,12.70
2023-04-11T07:20:48.540Z,12.30
2023-04-11T07:23:16.536Z,11.50
2023-04-11T07:25:44.989Z,11.60
2023-04-11T07:28:13.091Z,11.30
2023-04-11T07:30:42.620Z,11.50
2023-04-11T07:33:10.941Z,12.00
2023-04-11T07:35:39.058Z,12.70
2023-04-11T07:38:09.405Z,12.40
2023-04-11T07:40:37.377Z,12.00
2023-04-11T07:43:05.433Z,12.30
2023-04-11T07:45:34.104Z,12.30
2023-04-11T07:48:03.498Z,12.40
2023-04-11T07:50:31.464Z,12.60
2023-04-11T07:52:59.454Z,11.90
2023-04-11T07:55:27.588Z,12.10
2023-04-11T07:57:55.565Z,12.70
2023-04-11T08:00:24.454Z,12.30
2023-04-11T08:02:53.120Z,12.70
2023-04-11T08:05:22.879Z,12.40
2023-04-11T08:07:51.077Z,12.40
2023-04-11T08:10:19.141Z,12.10
2023-04-11T08:12:47.086Z,12.10
2023-04-11T08:15:15.219Z,12.30
2023-04-11T08:17:43.640Z,12.30
2023-04-11T08:20:12.831Z,12.50
2023-04-11T08:22:44.628Z,12.50
2023-04-11T08:25:14.385Z,12.10
2023-04-11T08:27:42.732Z,12.40
2023-04-11T08:30:11.089Z,12.60
2023-04-11T08:32:39.457Z,12.30
2023-04-11T08:35:08.108Z,12.60
2023-04-11T08:37:36.061Z,12.60
2023-04-11T08:40:07.265Z,12.70
2023-04-11T08:42:35.719Z,12.80
2023-04-11T08:45:08.374Z,12.70
2023-04-11T08:47:37.158Z,12.30
2023-04-11T08:50:05.911Z,12.20
2023-04-11T08:52:35.040Z,12.40
2023-04-11T08:55:03.057Z,12.80
2023-04-11T08:57:32.455Z,12.50
2023-04-11T09:00:08.056Z,13.10
2023-04-11T09:02:36.102Z,13.80
2023-04-11T09:05:04.212Z,14.20
2023-04-11T09:07:49.921Z,14.70
2023-04-11T09:10:22.223Z,13.90
2023-04-11T09:12:51.609Z,14.10
2023-04-11T09:15:20.757Z,13.70
2023-04-11T09:17:49.753Z,13.20
2023-04-11T09:20:19.425Z,13.70
2023-04-11T09:22:49.792Z,14.60
2023-04-11T09:25:18.495Z,14.50
2023-04-11T09:27:46.591Z,13.50
2023-04-11T09:30:24.916Z,13.50
2023-04-11T09:32:54.473Z,14.60
2023-04-11T09:35:24.864Z,15.30
2023-04-11T09:37:55.351Z,15.70
2023-04-11T09:40:25.153Z,16.30
2023-04-11T09:42:58.810Z,15.90
2023-04-11T09:45:30.873Z,14.80
2023-04-11T09:48:00.916Z,14.60
2023-04-11T09:50:29.491Z,14.40
2023-04-11T09:52:59.599Z,13.80
2023-04-11T09:55:27.568Z,13.40
2023-04-11T09:57:56.152Z,13.60
2023-04-11T10:00:29.228Z,14.40
2023-04-11T10:02:58.894Z,16.00
2023-04-11T10:05:28.611Z,15.40
2023-04-11T10:08:03.343Z,15.70
2023-04-11T10:10:31.490Z,15.40
2023-04-11T10:12:59.505Z,16.40
2023-04-11T10:15:27.816Z,16.90
2023-04-11T10:18:10.459Z,16.50
2023-04-11T10:20:46.127Z,16.40
2023-04-11T10:23:14.900Z,17.00
2023-04-11T10:25:55.122Z,18.10
2023-04-11T10:28:38.182Z,17.30
2023-04-11T10:31:08.951Z,17.30
2023-04-11T10:33:39.641Z,16.50
2023-04-11T10:36:10.834Z,16.50
2023-04-11T10:38:49.486Z,17.50
2023-04-11T10:41:19.737Z,16.40
2023-04-11T10:43:48.254Z,15.90
2023-04-11T10:46:20.512Z,15.30
2023-04-11T10:49:00.444Z,14.80
2023-04-11T10:51:29.515Z,15.10
2023-04-11T10:53:59.620Z,14.90
2023-04-11T10:56:55.426Z,15.70
2023-04-11T10:59:58.016Z,15.50
2023-04-11T11:02:37.520Z,16.00
2023-04-11T11:05:24.163Z,16.10
2023-04-11T11:07:53.820Z,16.70
2023-04-11T11:10:40.428Z,17.20
2023-04-11T11:13:08.789Z,18.00
2023-04-11T11:15:38.447Z,18.50
2023-04-11T11:18:08.343Z,18.20
2023-04-11T11:20:38.529Z,17.30
2023-04-11T11:23:07.955Z,17.40
2023-04-11T11:25:36.384Z,18.00
2023-04-11T11:28:06.720Z,19.40
2023-04-11T11:30:35.644Z,19.50
2023-04-11T11:33:17.733Z,18.80
2023-04-11T11:35:53.875Z,17.60
2023-04-11T11:38:23.157Z,17.70
2023-04-11T11:40:51.653Z,16.30
2023-04-11T11:43:19.690Z,17.80
2023-04-11T11:45:48.091Z,16.20
2023-04-11T11:48:23.301Z,17.10
2023-04-11T11:50:58.508Z,18.20
2023-04-11T11:53:26.994Z,19.50
2023-04-11T11:55:56.709Z,19.60
2023-04-11T11:58:25.536Z,19.70
2023-04-11T12:00:53.838Z,17.80
2023-04-11T12:03:23.644Z,18.00
2023-04-11T12:05:53.736Z,18.90
2023-04-11T12:08:23.137Z,19.20
2023-04-11T12:10:51.849Z,19.00
2023-04-11T12:13:22.260Z,18.70
2023-04-11T12:15:52.044Z,17.70
2023-04-11T12:18:22.338Z,17.20
2023-04-11T12:20:50.536Z,16.90
2023-04-11T12:23:18.816Z,18.10
2023-04-11T12:25:48.881Z,17.90
2023-04-11T12:28:17.198Z,18.20
2023-04-11T12:30:45.167Z,15.70
2023-04-11T12:33:13.138Z,15.60
2023-04-11T12:35:41.356Z,16.40
2023-04-11T12:38:10.858Z,16.50
2023-04-11T12:40:41.246Z,16.40
2023-04-11T12:43:10.526Z,15.40
2023-04-11T12:45:39.124Z,14.60
2023-04-11T12:48:07.760Z,14.50
2023-04-11T12:50:35.790Z,15.50
2023-04-11T12:53:03.767Z,16.00
2023-04-11T12:55:31.819Z,15.70
2023-04-11T12:57:59.804Z,15.70
2023-04-11T13:00:29.294Z,15.40
2023-04-11T13:02:57.972Z,15.80
2023-04-11T13:05:26.229Z,15.80
2023-04-11T13:07:54.161Z,16.60
2023-04-11T13:10:22.377Z,16.10
2023-04-11T13:12:53.252Z,15.40
2023-04-11T13:15:21.355Z,16.40
2023-04-11T13:17:51.332Z,16.00
2023-04-11T13:20:19.354Z,16.80
2023-04-11T13:22:47.304Z,17.00
2023-04-11T13:25:15.328Z,16.40
2023-04-11T13:27:43.682Z,16.50
2023-04-11T13:30:12.457Z,16.70
2023-04-11T13:32:40.663Z,16.10
2023-04-11T13:35:10.517Z,16.30
2023-04-11T13:37:38.530Z,15.70
2023-04-11T13:40:08.334Z,15.20
2023-04-11T13:42:36.501Z,15.10
2023-04-11T13:45:05.484Z,15.00
2023-04-11T13:47:35.384Z,14.80
2023-04-11T13:50:05.502Z,14.70
2023-04-11T13:52:34.834Z,15.00
2023-04-11T13:55:03.298Z,15.20
2023-04-11T13:57:31.277Z,15.70
2023-04-11T13:59:59.232Z,15.50
2023-04-11T14:02:27.242Z,16.00
2023-04-11T14:04:55.257Z,16.50
2023-04-11T14:07:23.180Z,16.10
2023-04-11T14:09:52.507Z,15.80
2023-04-11T14:12:20.507Z,15.40
2023-04-11T14:14:48.468Z,15.60
2023-04-11T14:17:16.758Z,15.50
2023-04-11T14:19:44.792Z,15.70
2023-04-11T14:22:12.881Z,15.80
2023-04-11T14:24:40.960Z,15.80
2023-04-11T14:27:10.354Z,15.90
2023-04-11T14:29:38.426Z,15.50
2023-04-11T14:32:07.494Z,15.00
2023-04-11T14:34:35.663Z,15.30
2023-04-11T14:37:03.781Z,15.60
2023-04-11T14:39:32.748Z,15.20
2023-04-11T14:42:02.005Z,14.60
2023-04-11T14:44:31.429Z,14.70
2023-04-11T14:46:59.408Z,14.70
2023-04-11T14:49:27.414Z,14.30
2023-04-11T14:51:55.439Z,13.90
2023-04-11T14:54:24.535Z,13.80
2023-04-11T14:56:53.078Z,13.70
2023-04-11T14:59:21.160Z,13.70
2023-04-11T15:01:50.613Z,13.80
2023-04-11T15:04:21.723Z,13.80
2023-04-11T15:06:49.888Z,14.10
2023-04-11T15:09:20.048Z,14.20
2023-04-11T15:11:48.650Z,14.50
2023-04-11T15:14:16.790Z,14.50
2023-04-11T15:16:44.856Z,14.30
2023-04-11T15:19:14.183Z,14.40
2023-04-11T15:21:42.157Z,14.30
2023-04-11T15:24:10.272Z,14.30
2023-04-11T15:26:38.406Z,14.60
2023-04-11T15:29:06.957Z,14.60
2023-04-11T15:31:36.396Z,14.50
2023-04-11T15:34:04.363Z,14.40
2023-04-11T15:36:34.111Z,14.20
2023-04-11T15:39:02.119Z,14.20
2023-04-11T15:41:31.817Z,14.30
2023-04-11T15:44:00.936Z,14.30
2023-04-11T15:46:30.021Z,14.20
2023-04-11T15:48:58.064Z,14.00
2023-04-11T15:51:27.195Z,14.10
2023-04-11T15:53:56.731Z,14.40
2023-04-11T15:56:24.852Z,14.50
2023-04-11T15:58:52.810Z,14.20
2023-04-11T16:01:22.850Z,14.10
2023-04-11T16:03:53.498Z,14.20
2023-04-11T16:06:22.484Z,14.20
2023-04-11T16:08:50.832Z,14.40
2023-04-11T16:11:20.386Z,14.40
2023-04-11T16:13:48.448Z,14.30
2023-04-11T16:16:16.580Z,14.10
2023-04-11T16:18:44.579Z,14.20
2023-04-11T16:21:16.326Z,14.20
2023-04-11T16:23:44.585Z,14.10
2023-04-11T16:26:12.827Z,14.00
2023-04-11T16:28:42.136Z,14.00
2023-04-11T16:31:10.144Z,13.90
2023-04-11T16:33:38.144Z,13.90
2023-04-11T16:36:06.555Z,13.80
2023-04-11T16:38:34.621Z,13.90
2023-04-11T16:41:03.341Z,13.60
2023-04-11T16:43:31.321Z,13.50
2023-04-11T16:46:00.785Z,13.40
2023-04-11T16:48:30.322Z,13.40
2023-04-11T16:50:58.744Z,13.30
2023-04-11T16:53:26.686Z,13.30
2023-04-11T16:55:55.660Z,13.30
2023-04-11T16:58:23.769Z,13.20
2023-04-11T17:00:55.287Z,13.20
2023-04-11T17:03:24.961Z,13.20
2023-04-11T17:05:53.030Z,13.00
2023-04-11T17:08:21.286Z,13.00
2023-04-11T17:10:49.433Z,12.80
2023-04-11T17:13:18.579Z,12.70
2023-04-11T17:15:46.920Z,12.60
2023-04-11T17:18:15.675Z,12.60
2023-04-11T17:20:46.290Z,12.50
2023-04-11T17:23:14.326Z,12.40
2023-04-11T17:25:42.466Z,12.40
2023-04-11T17:28:10.610Z,12.30
2023-04-11T17:30:38.578Z,12.20
2023-04-11T17:33:06.631Z,12.20
2023-04-11T17:35:34.752Z,12.00
2023-04-11T17:38:04.129Z,12.10
2023-04-11T17:40:32.126Z,12.00
2023-04-11T17:43:00.542Z,12.00
2023-04-11T17:45:28.682Z,12.00
2023-04-11T17:47:56.727Z,11.90
2023-04-11T17:50:25.107Z,11.90
2023-04-11T17:52:53.120Z,11.90
2023-04-11T17:55:22.592Z,11.80
2023-04-11T17:57:50.558Z,11.80
2023-04-11T18:00:23.038Z,11.90
2023-04-11T18:02:52.816Z,11.80
2023-04-11T18:05:24.982Z,11.80
2023-04-11T18:07:54.901Z,11.70
2023-04-11T18:10:25.762Z,11.70
2023-04-11T18:12:55.443Z,11.70
2023-04-11T18:15:24.361Z,11.70
2023-04-11T18:17:53.198Z,11.50
2023-04-11T18:20:21.392Z,11.50
2023-04-11T18:22:56.012Z,11.60
2023-04-11T18:25:25.496Z,11.50
2023-04-11T18:27:53.489Z,11.50
2023-04-11T18:30:21.435Z,11.50
2023-04-11T18:32:51.652Z,11.50
2023-04-11T18:35:19.790Z,11.50
2023-04-11T18:37:47.880Z,11.50
2023-04-11T18:40:16.504Z,11.40
2023-04-11T18:42:48.382Z,11.40
2023-04-11T18:45:18.056Z,11.40
2023-04-11T18:47:46.597Z,11.40
2023-04-11T18:50:15.074Z,11.40
2023-04-11T18:52:44.818Z,11.30
2023-04-11T18:55:13.753Z,11.30
2023-04-11T18:57:43.783Z,11.30
2023-04-11T19:00:18.417Z,11.10
2023-04-11T19:02:47.590Z,11.00
2023-04-11T19:05:16.430Z,11.10
2023-04-11T19:07:45.347Z,11.00
2023-04-11T19:10:13.624Z,10.90
2023-04-11T19:12:41.800Z,10.90
2023-04-11T19:15:10.709Z,10.90
2023-04-11T19:17:40.468Z,10.90
2023-04-11T19:20:12.419Z,10.80
2023-04-11T19:22:41.206Z,10.80
2023-04-11T19:25:11.513Z,10.90
2023-04-11T19:27:41.393Z,10.90
2023-04-11T19:30:11.335Z,10.90
2023-04-11T19:32:43.901Z,10.90
2023-04-11T19:35:12.916Z,10.90
2023-04-11T19:37:41.657Z,10.90
2023-04-11T19:40:12.351Z,10.80
2023-04-11T19:42:40.521Z,10.80
2023-04-11T19:45:10.543Z,10.80
2023-04-11T19:47:40.254Z,10.80
2023-04-11T19:50:11.758Z,10.90
2023-04-11T19:52:40.126Z,10.90
2023-04-11T19:55:09.331Z,10.90
2023-04-11T19:57:38.241Z,10.90
2023-04-11T20:00:11.966Z,10.80
2023-04-11T20:02:45.102Z,10.80
2023-04-11T20:05:14.642Z,10.80
2023-04-11T20:07:43.925Z,10.70
2023-04-11T20:10:13.046Z,10.60
2023-04-11T20:12:41.152Z,10.70
2023-04-11T20:15:10.627Z,10.70
2023-04-11T20:17:38.746Z,10.60
2023-04-11T20:20:11.188Z,10.50
2023-04-11T20:22:40.226Z,10.40
2023-04-11T20:25:11.344Z,10.50
2023-04-11T20:27:39.552Z,10.60
2023-04-11T20:30:10.373Z,10.60
2023-04-11T20:32:38.485Z,10.60
2023-04-11T20:35:09.691Z,10.60
2023-04-11T20:37:37.808Z,10.70
2023-04-11T20:40:08.006Z,10.70
2023-04-11T20:42:39.756Z,10.70
2023-04-11T20:45:10.285Z,10.70
2023-04-11T20:47:38.531Z,10.90
2023-04-11T20:50:10.286Z,10.90
2023-04-11T20:52:41.041Z,10.90
2023-04-11T20:55:10.502Z,10.90
2023-04-11T20:57:38.616Z,10.90
2023-04-11T21:00:13.711Z,10.90
2023-04-11T21:02:44.257Z,10.90
2023-04-11T21:05:14.413Z,10.90
2023-04-11T21:07:43.035Z,10.90
2023-04-11T21:10:11.999Z,10.90
2023-04-11T21:12:40.755Z,10.90
2023-04-11T21:15:10.049Z,11.00
2023-04-11T21:17:39.406Z,11.10
2023-04-11T21:20:11.049Z,11.10
2023-04-11T21:22:40.690Z,11.10
2023-04-11T21:25:09.800Z,11.10
2023-04-11T21:27:37.823Z,11.00
2023-04-11T21:30:07.233Z,10.80
2023-04-11T21:32:35.237Z,10.60
2023-04-11T21:35:03.589Z,10.40
2023-04-11T21:37:31.588Z,10.20
2023-04-11T21:40:00.926Z,10.00
2023-04-11T21:42:28.985Z,9.90
2023-04-11T21:44:56.940Z,9.90
2023-04-11T21:47:25.020Z,9.90
2023-04-11T21:49:53.009Z,9.90
2023-04-11T21:52:20.970Z,9.90
2023-04-11T21:54:49.059Z,9.90
2023-04-11T21:57:18.359Z,10.00
2023-04-11T21:59:46.751Z,10.10
2023-04-11T22:02:14.926Z,10.10
2023-04-11T22:05:01.239Z,10.20
2023-04-11T22:07:38.140Z,10.20
2023-04-11T22:10:09.803Z,10.10
2023-04-11T22:12:39.805Z,10.10
2023-04-11T22:15:10.908Z,10.10
2023-04-11T22:17:41.665Z,10.10
2023-04-11T22:20:11.185Z,10.20
2023-04-11T22:22:39.248Z,10.20
2023-04-11T22:25:09.867Z,10.20
2023-04-11T22:27:39.266Z,10.30
2023-04-11T22:30:08.725Z,10.30
2023-04-11T22:32:37.048Z,10.30
2023-04-11T22:35:06.677Z,10.30
2023-04-11T22:37:34.610Z,10.20
2023-04-11T22:40:06.016Z,10.30
2023-04-11T22:42:33.997Z,10.30
2023-04-11T22:45:03.426Z,10.30
2023-04-11T22:47:34.101Z,10.30
2023-04-11T22:50:03.406Z,10.40
2023-04-11T22:52:31.425Z,10.30
2023-04-11T22:54:59.404Z,10.40
2023-04-11T22:57:27.360Z,10.40
2023-04-11T22:59:55.310Z,10.30
2023-04-11T23:02:25.234Z,10.30
2023-04-11T23:04:53.687Z,10.40
2023-04-11T23:07:22.282Z,10.30
2023-04-11T23:09:52.506Z,10.30
2023-04-11T23:12:23.494Z,10.30
2023-04-11T23:14:53.146Z,10.30
2023-04-11T23:17:21.304Z,10.30
2023-04-11T23:19:50.902Z,10.40
2023-04-11T23:22:19.289Z,10.40
2023-04-11T23:24:47.275Z,10.40
2023-04-11T23:27:15.182Z,10.40
2023-04-11T23:29:43.346Z,10.50
2023-04-11T23:32:11.287Z,10.50
2023-04-11T23:34:39.694Z,10.40
2023-04-11T23:37:09.072Z,10.40
2023-04-11T23:39:37.775Z,10.40
2023-04-11T23:42:06.139Z,10.30
2023-04-11T23:44:34.093Z,10.30
2023-04-11T23:47:02.094Z,10.30
2023-04-11T23:49:30.067Z,10.20
2023-04-11T23:51:58.036Z,10.20
2023-04-11T23:54:30.326Z,10.30
2023-04-11T23:56:58.632Z,10.20
2023-04-11T23:59:27.026Z,10.20
